Time;durP1;ratioP1;P1;durP2;ratioP2;P2;SDS_P1;SDS_P2;PMS_P1;PMS_P2;Temp;Humidity;BMP_temperature;BMP_pressure;BME280_temperature;BME280_humidity;BME280_pressure;Samples;Min_cycle;Max_cycle;Signal;HPM_P1;HPM_P2
2023/07/20 00:00:35;;;;;;;6.40;5.20;;;17.30;99.90;;;;;;4998321;28;20023;-49
2023/07/20 00:03:24;;;;;;;8.02;5.43;;;17.40;99.90;;;;;;4998209;28;20117;-52
2023/07/20 00:06:10;;;;;;;6.97;5.15;;;17.30;99.90;;;;;;4997420;28;20035;-52
2023/07/20 00:08:58;;;;;;;7.53;4.90;;;17.30;99.90;;;;;;4997180;28;20026;-52
2023/07/20 00:11:51;;;;;;;6.72;5.13;;;17.30;99.90;;;;;;4995145;28;20407;-49
2023/07/20 00:14:37;;;;;;;6.15;5.15;;;17.30;99.90;;;;;;4995042;28;20377;-49
2023/07/20 00:17:23;;;;;;;8.20;5.47;;;17.20;99.90;;;;;;4994782;28;20407;-50
2023/07/20 00:20:09;;;;;;;8.52;5.28;;;17.20;99.90;;;;;;4995032;28;20031;-48
2023/07/20 00:22:57;;;;;;;6.20;4.97;;;17.30;99.90;;;;;;4994984;28;20026;-51
2023/07/20 00:25:43;;;;;;;6.40;4.72;;;17.30;99.90;;;;;;4994923;28;20073;-51
2023/07/20 00:28:29;;;;;;;5.75;4.47;;;17.40;99.90;;;;;;4994629;28;20499;-52
2023/07/20 00:31:15;;;;;;;6.53;5.10;;;17.40;99.90;;;;;;4994286;28;20123;-48
2023/07/20 00:34:01;;;;;;;7.70;5.00;;;17.40;99.90;;;;;;4994262;28;20069;-50
2023/07/20 00:36:48;;;;;;;9.00;5.78;;;17.40;99.90;;;;;;4994430;28;20507;-47
2023/07/20 00:39:34;;;;;;;8.93;5.82;;;17.50;99.90;;;;;;4994796;28;20030;-49
2023/07/20 00:42:20;;;;;;;6.28;4.97;;;17.50;99.90;;;;;;4994609;28;20081;-47
2023/07/20 00:45:07;;;;;;;6.15;4.57;;;17.50;99.90;;;;;;4993363;28;20058;-49
2023/07/20 00:47:53;;;;;;;9.32;4.97;;;17.50;99.90;;;;;;4994463;28;20125;-50
2023/07/20 00:50:39;;;;;;;7.05;4.97;;;17.50;99.90;;;;;;4994350;28;20611;-50
2023/07/20 00:53:26;;;;;;;5.82;4.95;;;17.50;99.90;;;;;;4993768;28;20453;-50
2023/07/20 00:56:12;;;;;;;7.60;5.05;;;17.40;99.90;;;;;;4994165;28;20027;-50
2023/07/20 00:58:58;;;;;;;5.70;4.68;;;17.30;99.90;;;;;;4993555;28;20062;-50
2023/07/20 01:01:44;;;;;;;8.15;5.38;;;17.40;99.90;;;;;;4994207;28;20027;-51
2023/07/20 01:04:30;;;;;;;11.85;6.53;;;17.50;99.90;;;;;;4994297;28;20062;-54
2023/07/20 01:07:26;;;;;;;6.70;5.57;;;17.50;99.90;;;;;;4993491;28;20041;-47
2023/07/20 01:10:20;;;;;;;7.25;4.82;;;17.40;99.90;;;;;;4994484;28;20026;-53
2023/07/20 01:13:09;;;;;;;8.57;5.05;;;17.50;99.90;;;;;;4993493;28;20034;-50
2023/07/20 01:16:01;;;;;;;5.78;5.28;;;17.60;99.90;;;;;;4993967;28;20061;-50
2023/07/20 01:18:46;;;;;;;7.10;5.18;;;17.30;99.90;;;;;;4992248;28;20022;-49
2023/07/20 01:21:54;;;;;;;7.38;5.43;;;17.30;99.90;;;;;;4992358;28;20109;-47
2023/07/20 01:25:11;;;;;;;8.18;5.18;;;17.00;99.90;;;;;;4993764;28;20033;-49
2023/07/20 01:28:09;;;;;;;6.95;5.78;;;17.10;99.90;;;;;;4993616;28;20026;-51
2023/07/20 01:31:17;;;;;;;11.55;5.65;;;17.00;99.90;;;;;;4993714;28;20602;-51
2023/07/20 01:34:05;;;;;;;8.27;5.70;;;17.00;99.90;;;;;;4992931;28;20030;-52
2023/07/20 01:36:53;;;;;;;9.45;5.93;;;16.80;99.90;;;;;;4993610;28;20407;-48
2023/07/20 01:39:40;;;;;;;6.90;5.53;;;16.80;99.90;;;;;;4992919;28;20051;-46
2023/07/20 01:42:26;;;;;;;6.70;5.65;;;16.90;99.90;;;;;;4992648;28;20032;-52
2023/07/20 01:45:12;;;;;;;7.07;5.85;;;17.00;99.90;;;;;;4993405;28;20030;-50
2023/07/20 01:47:58;;;;;;;10.93;6.30;;;17.00;99.90;;;;;;4993080;28;20129;-49
2023/07/20 01:50:44;;;;;;;6.40;5.30;;;16.90;99.90;;;;;;4993402;28;20032;-51
2023/07/20 01:53:30;;;;;;;7.07;5.80;;;16.80;99.90;;;;;;4993435;28;20034;-49
2023/07/20 01:56:16;;;;;;;6.63;6.03;;;16.80;99.90;;;;;;4993166;28;20061;-51
2023/07/20 01:59:02;;;;;;;8.82;5.88;;;16.80;99.90;;;;;;4992943;28;20049;-47
2023/07/20 02:01:48;;;;;;;10.13;6.13;;;16.80;99.90;;;;;;4992932;28;20125;-54
2023/07/20 02:04:34;;;;;;;9.88;6.18;;;16.80;99.90;;;;;;4992564;28;20405;-53
2023/07/20 02:07:20;;;;;;;6.93;5.88;;;16.80;99.90;;;;;;4993092;28;20026;-52
2023/07/20 02:10:06;;;;;;;8.93;6.03;;;16.80;99.90;;;;;;4991935;28;20031;-50
2023/07/20 02:12:52;;;;;;;8.40;5.63;;;16.80;99.90;;;;;;4992988;28;20037;-50
2023/07/20 02:15:38;;;;;;;10.07;6.20;;;16.80;99.90;;;;;;4992114;28;20026;-48
2023/07/20 02:18:24;;;;;;;7.05;6.05;;;16.80;99.90;;;;;;4992160;28;20026;-50
2023/07/20 02:21:10;;;;;;;9.15;6.13;;;16.70;99.90;;;;;;4992312;28;20031;-53
2023/07/20 02:23:56;;;;;;;6.82;5.82;;;16.70;99.90;;;;;;4992796;28;20042;-50
2023/07/20 02:26:42;;;;;;;9.60;5.72;;;16.60;99.90;;;;;;4992527;28;20105;-48
2023/07/20 02:29:28;;;;;;;9.43;6.43;;;16.60;99.90;;;;;;4992736;28;20027;-47
2023/07/20 02:32:14;;;;;;;11.20;6.35;;;16.60;99.90;;;;;;4991684;28;20031;-47
2023/07/20 02:35:00;;;;;;;10.77;6.95;;;16.60;99.90;;;;;;4992212;28;20096;-52
2023/07/20 02:37:46;;;;;;;8.18;5.90;;;16.70;99.90;;;;;;4992450;28;20065;-50
2023/07/20 02:40:32;;;;;;;7.95;5.78;;;16.90;99.90;;;;;;4991950;28;20032;-53
2023/07/20 02:43:18;;;;;;;6.40;5.72;;;16.90;99.90;;;;;;4992513;28;20491;-52
2023/07/20 02:46:04;;;;;;;11.75;5.88;;;17.00;99.90;;;;;;4992303;28;20283;-52
2023/07/20 02:48:50;;;;;;;10.75;6.43;;;17.00;99.90;;;;;;4991749;28;20045;-49
2023/07/20 02:51:36;;;;;;;6.82;5.75;;;17.00;99.90;;;;;;4992494;28;20407;-48
2023/07/20 02:54:22;;;;;;;7.85;5.93;;;17.20;99.90;;;;;;4992252;28;20026;-52
2023/07/20 02:57:08;;;;;;;9.32;6.35;;;17.10;99.90;;;;;;4992599;28;20113;-51
2023/07/20 02:59:55;;;;;;;7.63;6.03;;;17.00;99.90;;;;;;4991760;28;20391;-52
2023/07/20 03:02:40;;;;;;;7.80;6.88;;;17.00;99.90;;;;;;4991821;28;20030;-47
2023/07/20 03:05:27;;;;;;;11.82;6.47;;;17.00;99.90;;;;;;4991227;28;20059;-51
2023/07/20 03:08:13;;;;;;;10.27;6.35;;;17.00;99.90;;;;;;4991543;28;20035;-52
2023/07/20 03:10:59;;;;;;;9.20;6.43;;;17.00;99.90;;;;;;4990956;28;20059;-49
2023/07/20 03:13:46;;;;;;;9.65;7.03;;;16.90;99.90;;;;;;4992486;28;20022;-47
2023/07/20 03:16:32;;;;;;;9.05;6.60;;;16.90;99.90;;;;;;4992476;28;20030;-51
2023/07/20 03:19:18;;;;;;;8.15;6.50;;;16.90;99.90;;;;;;4992330;28;20407;-48
2023/07/20 03:22:04;;;;;;;9.30;7.43;;;17.00;99.90;;;;;;4991478;28;20409;-49
2023/07/20 03:24:52;;;;;;;7.53;6.70;;;16.80;99.90;;;;;;4991997;28;20022;-48
2023/07/20 03:27:38;;;;;;;9.98;6.70;;;16.70;99.90;;;;;;4991925;28;20031;-50
2023/07/20 03:30:24;;;;;;;11.48;7.65;;;16.90;99.90;;;;;;4991919;28;20614;-47
2023/07/20 03:33:09;;;;;;;8.68;6.72;;;16.80;99.90;;;;;;4991936;28;20031;-53
2023/07/20 03:35:56;;;;;;;6.82;6.20;;;16.70;99.90;;;;;;4991922;28;20061;-48
2023/07/20 03:38:42;;;;;;;9.75;6.70;;;16.80;99.90;;;;;;4991194;28;20026;-51
2023/07/20 03:41:28;;;;;;;10.32;6.53;;;16.80;99.90;;;;;;4991680;28;20031;-52
2023/07/20 03:44:14;;;;;;;8.63;7.05;;;16.90;99.90;;;;;;4992521;28;20189;-47
2023/07/20 03:46:59;;;;;;;9.65;7.47;;;16.90;99.90;;;;;;4995447;28;20042;-53
2023/07/20 03:49:45;;;;;;;13.60;7.60;;;16.90;99.90;;;;;;4994556;28;20034;-51
2023/07/20 03:52:31;;;;;;;11.70;6.97;;;16.90;99.90;;;;;;4994633;28;20569;-49
2023/07/20 03:55:17;;;;;;;15.50;6.95;;;16.80;99.90;;;;;;4994727;28;20037;-52
2023/07/20 03:58:03;;;;;;;10.73;6.93;;;16.80;99.90;;;;;;4994116;28;20027;-51
2023/07/20 04:00:51;;;;;;;13.32;7.15;;;16.90;99.90;;;;;;4994136;28;20026;-51
2023/07/20 04:03:37;;;;;;;8.57;6.60;;;16.90;99.90;;;;;;4995258;28;20027;-48
2023/07/20 04:06:23;;;;;;;12.38;7.03;;;17.00;99.90;;;;;;4995104;28;20081;-46
2023/07/20 04:09:09;;;;;;;10.35;6.72;;;16.90;99.90;;;;;;4994497;28;20077;-51
2023/07/20 04:11:55;;;;;;;9.55;6.95;;;16.80;99.90;;;;;;4994350;28;20026;-49
2023/07/20 04:14:40;;;;;;;11.60;6.90;;;16.90;99.90;;;;;;4994016;28;20125;-50
2023/07/20 04:17:26;;;;;;;8.50;7.15;;;16.80;99.90;;;;;;4994700;28;20023;-51
2023/07/20 04:20:12;;;;;;;9.82;7.03;;;16.90;99.90;;;;;;4993759;28;20561;-50
2023/07/20 04:22:58;;;;;;;8.80;6.43;;;17.10;99.90;;;;;;4994948;28;20030;-51
2023/07/20 04:25:44;;;;;;;11.00;7.22;;;17.10;99.90;;;;;;4993590;28;20509;-50
2023/07/20 04:28:30;;;;;;;10.13;7.20;;;17.20;99.90;;;;;;4994686;28;20096;-48
2023/07/20 04:31:16;;;;;;;9.45;6.90;;;17.10;99.90;;;;;;4994628;28;20096;-47
2023/07/20 04:34:02;;;;;;;8.32;6.85;;;17.10;99.90;;;;;;4994706;28;20033;-51
2023/07/20 04:36:48;;;;;;;13.00;7.13;;;17.10;99.90;;;;;;4993455;28;20050;-48
2023/07/20 04:39:34;;;;;;;12.70;6.38;;;17.20;99.90;;;;;;4994450;28;20057;-49
2023/07/20 04:42:20;;;;;;;10.82;6.80;;;17.30;99.90;;;;;;4993735;28;20034;-49
2023/07/20 04:45:07;;;;;;;10.02;7.28;;;17.30;99.90;;;;;;4994567;28;20109;-47
2023/07/20 04:47:52;;;;;;;10.98;6.60;;;17.40;99.90;;;;;;4992740;28;20101;-46
2023/07/20 04:50:43;;;;;;;12.20;7.35;;;17.40;99.90;;;;;;4993631;28;20120;-48
2023/07/20 04:53:30;;;;;;;8.93;7.25;;;17.50;99.90;;;;;;4994299;28;20042;-49
2023/07/20 04:56:16;;;;;;;9.80;7.43;;;17.60;99.90;;;;;;4993411;28;20053;-48
2023/07/20 04:59:02;;;;;;;11.48;7.78;;;17.60;99.90;;;;;;4994134;28;20105;-52
2023/07/20 05:01:48;;;;;;;10.55;7.53;;;17.50;99.90;;;;;;4993155;28;20033;-48
2023/07/20 05:04:34;;;;;;;13.57;9.63;;;17.50;99.90;;;;;;4993553;28;20039;-48
2023/07/20 05:07:20;;;;;;;11.43;7.75;;;17.40;99.90;;;;;;4994216;28;20057;-51
2023/07/20 05:10:07;;;;;;;10.18;6.93;;;17.30;99.90;;;;;;4994443;28;20503;-47
2023/07/20 05:12:53;;;;;;;11.45;7.20;;;17.40;99.90;;;;;;4993955;28;20384;-47
2023/07/20 05:15:39;;;;;;;10.75;7.72;;;17.30;99.90;;;;;;4994315;28;20487;-51
2023/07/20 05:18:25;;;;;;;13.80;8.20;;;17.20;99.90;;;;;;4992992;28;20040;-51
2023/07/20 05:21:11;;;;;;;8.82;7.10;;;17.20;99.90;;;;;;4994188;28;20340;-50
2023/07/20 05:23:57;;;;;;;10.82;6.70;;;17.20;99.90;;;;;;4992760;28;20033;-50
2023/07/20 05:26:43;;;;;;;34.35;25.85;;;17.30;99.90;;;;;;4993481;28;20037;-50
2023/07/20 05:29:29;;;;;;;20.98;12.82;;;17.50;99.90;;;;;;4993803;28;20322;-50
2023/07/20 05:32:15;;;;;;;14.98;8.65;;;17.50;99.90;;;;;;4992310;28;20121;-51
2023/07/20 05:35:01;;;;;;;9.52;7.13;;;17.50;99.90;;;;;;4993491;28;20713;-49
2023/07/20 05:37:47;;;;;;;10.15;6.53;;;17.50;99.90;;;;;;4993407;28;20503;-50
2023/07/20 05:40:32;;;;;;;12.95;7.55;;;17.50;99.90;;;;;;4993465;28;20037;-49
2023/07/20 05:43:18;;;;;;;10.35;6.18;;;17.50;99.90;;;;;;4992865;28;20080;-52
2023/07/20 05:46:05;;;;;;;11.50;6.53;;;17.70;99.90;;;;;;4993193;28;20046;-48
2023/07/20 05:48:51;;;;;;;10.25;7.10;;;17.60;99.90;;;;;;4993089;28;20038;-53
2023/07/20 05:51:37;;;;;;;12.73;6.47;;;17.70;99.90;;;;;;4992636;28;20360;-50
2023/07/20 05:54:25;;;;;;;12.30;7.35;;;17.70;99.90;;;;;;4992564;28;20538;-48
2023/07/20 05:57:11;;;;;;;9.43;6.40;;;17.70;99.90;;;;;;4992285;28;20073;-48
2023/07/20 05:59:57;;;;;;;11.73;6.35;;;17.80;99.90;;;;;;4992950;28;20046;-49
2023/07/20 06:02:43;;;;;;;8.48;5.72;;;17.90;99.90;;;;;;4992945;28;20031;-49
2023/07/20 06:05:30;;;;;;;9.93;6.03;;;18.10;99.90;;;;;;4992852;28;20035;-49
2023/07/20 06:08:16;;;;;;;11.20;6.10;;;18.00;99.90;;;;;;4992723;28;20384;-48
2023/07/20 06:11:02;;;;;;;7.82;6.35;;;18.00;99.90;;;;;;4993032;28;20396;-51
2023/07/20 06:13:48;;;;;;;13.82;7.10;;;18.00;99.90;;;;;;4992826;28;20585;-48
2023/07/20 06:16:33;;;;;;;8.40;6.22;;;17.80;99.90;;;;;;4992780;28;20117;-53
2023/07/20 06:19:19;;;;;;;8.32;5.53;;;17.90;99.90;;;;;;4991989;28;20026;-46
2023/07/20 06:22:05;;;;;;;11.38;6.70;;;17.90;99.90;;;;;;4992661;28;20027;-51
2023/07/20 06:24:51;;;;;;;8.63;5.97;;;18.00;99.90;;;;;;4992634;28;20080;-49
2023/07/20 06:27:37;;;;;;;8.95;5.60;;;18.10;99.90;;;;;;4992731;28;20072;-50
2023/07/20 06:30:24;;;;;;;7.72;6.10;;;18.20;99.90;;;;;;4992553;28;20061;-53
2023/07/20 06:33:10;;;;;;;9.35;6.05;;;18.20;99.90;;;;;;4992911;28;20029;-49
2023/07/20 06:35:59;;;;;;;11.20;6.32;;;18.30;99.90;;;;;;4992171;28;20034;-51
2023/07/20 06:38:45;;;;;;;11.00;6.05;;;18.50;99.90;;;;;;4992507;28;20233;-54
2023/07/20 06:41:31;;;;;;;10.70;5.38;;;18.50;99.90;;;;;;4992890;28;20661;-52
2023/07/20 06:44:16;;;;;;;6.45;5.15;;;18.50;99.90;;;;;;4992287;28;20407;-50
2023/07/20 06:47:03;;;;;;;8.00;5.38;;;18.40;99.90;;;;;;4991696;28;20038;-46
2023/07/20 06:49:49;;;;;;;8.32;5.72;;;18.30;99.90;;;;;;4992314;28;20034;-54
2023/07/20 06:52:35;;;;;;;10.80;6.53;;;18.40;99.90;;;;;;4991716;28;20034;-50
2023/07/20 06:55:21;;;;;;;9.35;6.47;;;18.40;99.90;;;;;;4992099;28;20412;-47
2023/07/20 06:58:07;;;;;;;8.30;6.90;;;18.40;99.90;;;;;;4991453;28;20407;-50
2023/07/20 07:00:53;;;;;;;11.50;7.10;;;18.40;99.90;;;;;;4992163;28;20027;-49
2023/07/20 07:03:39;;;;;;;11.75;7.43;;;18.40;99.90;;;;;;4991511;28;20507;-47
2023/07/20 07:06:27;;;;;;;10.98;7.53;;;18.40;99.90;;;;;;4992185;28;20034;-52
2023/07/20 07:09:13;;;;;;;8.10;6.28;;;18.40;99.90;;;;;;4991881;28;20064;-47
2023/07/20 07:11:59;;;;;;;12.45;7.18;;;18.50;99.90;;;;;;4991906;28;20030;-51
2023/07/20 07:14:45;;;;;;;11.38;7.47;;;18.60;99.90;;;;;;4992021;28;20495;-50
2023/07/20 07:17:32;;;;;;;14.57;7.72;;;18.70;99.90;;;;;;4991910;28;20495;-51
2023/07/20 07:20:18;;;;;;;9.45;6.82;;;18.70;99.90;;;;;;4994170;28;20029;-50
2023/07/20 07:23:04;;;;;;;11.52;7.00;;;18.90;99.90;;;;;;4995900;28;20235;-48
2023/07/20 07:25:50;;;;;;;11.65;6.90;;;19.00;99.90;;;;;;4994695;28;20034;-49
2023/07/20 07:28:37;;;;;;;12.52;7.70;;;19.20;99.90;;;;;;4996189;28;20384;-49
2023/07/20 07:31:24;;;;;;;7.38;6.60;;;19.40;99.90;;;;;;4995893;28;20034;-47
2023/07/20 07:34:10;;;;;;;9.05;6.75;;;19.40;99.90;;;;;;4995222;28;20022;-52
2023/07/20 07:36:56;;;;;;;8.88;5.90;;;19.50;99.90;;;;;;4995430;28;20053;-50
2023/07/20 07:39:42;;;;;;;8.98;6.45;;;19.60;99.90;;;;;;4995014;28;20108;-48
2023/07/20 07:42:29;;;;;;;8.40;7.10;;;19.60;99.90;;;;;;4995679;28;20031;-49
2023/07/20 07:45:16;;;;;;;7.93;7.20;;;19.30;99.90;;;;;;4995330;28;20050;-51
2023/07/20 07:48:03;;;;;;;7.93;6.40;;;19.10;99.90;;;;;;4995304;28;20041;-51
2023/07/20 07:50:49;;;;;;;7.25;6.55;;;19.20;99.90;;;;;;4995420;28;20109;-49
2023/07/20 07:53:36;;;;;;;8.77;6.45;;;19.40;99.90;;;;;;4995554;28;20038;-48
2023/07/20 07:56:22;;;;;;;8.88;6.75;;;19.50;99.90;;;;;;4995092;28;20031;-47
2023/07/20 07:59:08;;;;;;;7.53;6.72;;;19.60;99.90;;;;;;4995341;28;20368;-44
2023/07/20 08:01:54;;;;;;;8.20;7.40;;;19.70;99.90;;;;;;4993701;28;20027;-48
2023/07/20 08:04:40;;;;;;;8.50;7.47;;;19.80;99.90;;;;;;4995292;28;20034;-44
2023/07/20 08:07:26;;;;;;;8.77;7.88;;;20.10;99.90;;;;;;4994299;28;20038;-47
2023/07/20 08:10:12;;;;;;;10.10;9.02;;;20.30;99.90;;;;;;4994148;28;20038;-55
2023/07/20 08:12:58;;;;;;;11.93;9.68;;;20.40;99.90;;;;;;4994991;28;20165;-51
2023/07/20 08:15:48;;;;;;;9.52;8.65;;;20.40;99.90;;;;;;4995182;28;20161;-53
2023/07/20 08:18:34;;;;;;;11.35;10.20;;;20.40;99.90;;;;;;4994402;28;20072;-51
2023/07/20 08:21:20;;;;;;;12.02;8.65;;;20.20;99.90;;;;;;4994207;28;20057;-51
2023/07/20 08:24:07;;;;;;;12.23;9.60;;;20.10;99.90;;;;;;4994516;28;20589;-53
2023/07/20 08:26:52;;;;;;;10.15;9.23;;;20.10;99.90;;;;;;4994124;28;20451;-55
2023/07/20 08:29:39;;;;;;;8.05;7.35;;;20.10;99.90;;;;;;4994699;28;20023;-55
2023/07/20 08:32:26;;;;;;;8.90;7.80;;;20.20;99.90;;;;;;4992988;28;20034;-53
2023/07/20 08:35:12;;;;;;;10.30;8.60;;;20.60;99.90;;;;;;4994089;28;20065;-53
2023/07/20 08:37:58;;;;;;;8.68;7.53;;;20.60;99.90;;;;;;4993665;28;20022;-51
2023/07/20 08:40:45;;;;;;;11.20;8.82;;;20.70;99.90;;;;;;4993579;28;20030;-51
2023/07/20 08:43:33;;;;;;;7.72;6.93;;;20.70;99.90;;;;;;4994394;28;20062;-52
2023/07/20 08:46:19;;;;;;;8.85;7.03;;;20.50;99.90;;;;;;4994541;28;20046;-51
2023/07/20 08:49:06;;;;;;;7.72;6.78;;;20.30;99.90;;;;;;4994226;28;20042;-51
2023/07/20 08:51:53;;;;;;;10.82;7.20;;;20.10;99.90;;;;;;4993568;28;20052;-53
2023/07/20 08:54:39;;;;;;;10.00;7.40;;;19.70;99.90;;;;;;4992743;28;20313;-50
2023/07/20 08:57:26;;;;;;;9.10;8.20;;;19.60;99.90;;;;;;4993813;28;20033;-50
2023/07/20 09:00:14;;;;;;;10.27;9.27;;;19.50;99.90;;;;;;4994222;28;20030;-51
2023/07/20 09:03:02;;;;;;;9.93;8.70;;;19.40;99.90;;;;;;4994182;28;20500;-54
2023/07/20 09:05:48;;;;;;;10.68;9.68;;;19.30;99.90;;;;;;4993660;28;20104;-53
2023/07/20 09:08:38;;;;;;;11.68;9.50;;;19.10;99.90;;;;;;4993973;28;20026;-49
2023/07/20 09:11:24;;;;;;;11.10;9.00;;;19.20;99.90;;;;;;4994024;28;20399;-51
2023/07/20 09:14:10;;;;;;;10.30;8.45;;;19.00;99.90;;;;;;4993552;28;20028;-52
2023/07/20 09:16:56;;;;;;;10.57;9.07;;;18.80;99.90;;;;;;4993877;28;20077;-53
2023/07/20 09:19:48;;;;;;;9.98;8.98;;;18.70;99.90;;;;;;4992969;28;20026;-52
2023/07/20 09:22:34;;;;;;;10.30;9.30;;;18.30;99.90;;;;;;4994100;28;20030;-52
2023/07/20 09:25:20;;;;;;;9.48;8.57;;;17.90;99.90;;;;;;4993689;28;20085;-53
2023/07/20 09:28:06;;;;;;;12.90;10.27;;;17.80;99.90;;;;;;4993608;28;20030;-54
2023/07/20 09:30:56;;;;;;;11.25;9.95;;;17.80;99.90;;;;;;4992444;28;20041;-52
2023/07/20 09:33:42;;;;;;;11.27;10.18;;;17.80;99.90;;;;;;4993536;28;20034;-51
2023/07/20 09:36:29;;;;;;;12.30;10.93;;;17.60;99.90;;;;;;4992697;28;20030;-55
2023/07/20 09:39:15;;;;;;;10.15;9.15;;;17.50;99.90;;;;;;4994526;28;20026;-54
2023/07/20 09:42:02;;;;;;;10.07;9.00;;;17.60;99.90;;;;;;4991386;28;20027;-55
2023/07/20 09:44:48;;;;;;;8.98;8.05;;;17.60;99.90;;;;;;4995111;28;20038;-53
2023/07/20 09:47:37;;;;;;;8.43;7.47;;;17.60;99.90;;;;;;4992995;28;20089;-55
2023/07/20 09:50:23;;;;;;;11.63;7.20;;;17.90;99.90;;;;;;4993303;28;20033;-51
2023/07/20 09:53:15;;;;;;;7.78;6.97;;;18.00;99.90;;;;;;4993461;28;20101;-53
2023/07/20 09:56:02;;;;;;;7.88;7.07;;;18.10;99.90;;;;;;4993606;28;20094;-53
2023/07/20 09:58:48;;;;;;;7.13;6.43;;;18.30;99.90;;;;;;4994171;28;20069;-51
2023/07/20 10:01:34;;;;;;;7.72;7.03;;;18.80;99.90;;;;;;4994185;28;20157;-54
2023/07/20 10:04:22;;;;;;;8.50;7.65;;;19.00;99.90;;;;;;4992607;28;20030;-55
2023/07/20 10:07:13;;;;;;;8.52;7.10;;;19.10;99.90;;;;;;4992730;28;20510;-53
2023/07/20 10:10:01;;;;;;;9.25;7.30;;;19.30;99.90;;;;;;4992939;28;20513;-53
2023/07/20 10:12:48;;;;;;;9.40;7.28;;;19.10;99.90;;;;;;4992858;28;20031;-49
2023/07/20 10:15:54;;;;;;;8.13;7.35;;;19.30;99.90;;;;;;4992928;28;20026;-49
2023/07/20 10:18:58;;;;;;;8.18;7.30;;;19.50;99.90;;;;;;4992937;28;20149;-47
2023/07/20 10:21:48;;;;;;;6.50;5.90;;;19.60;99.90;;;;;;4992807;28;20061;-48
2023/07/20 10:24:34;;;;;;;7.18;6.47;;;19.40;99.90;;;;;;4992138;28;20037;-46
2023/07/20 10:27:21;;;;;;;8.07;7.28;;;19.30;99.90;;;;;;4992624;28;20030;-49
2023/07/20 10:30:07;;;;;;;7.80;7.18;;;19.10;99.90;;;;;;4992385;28;20030;-50
2023/07/20 10:32:53;;;;;;;8.15;7.05;;;18.90;99.90;;;;;;4992494;28;20033;-53
2023/07/20 10:35:55;;;;;;;8.32;7.50;;;18.70;99.90;;;;;;4992393;28;20046;-54
2023/07/20 10:38:47;;;;;;;8.43;7.63;;;18.70;99.90;;;;;;4992464;28;20026;-50
2023/07/20 10:41:39;;;;;;;7.85;7.15;;;18.60;99.90;;;;;;4991794;28;20052;-47
2023/07/20 10:44:25;;;;;;;8.75;7.95;;;18.70;99.90;;;;;;4992516;28;20499;-52
2023/07/20 10:47:13;;;;;;;9.35;8.40;;;19.00;99.90;;;;;;4991333;28;20553;-48
2023/07/20 10:50:00;;;;;;;9.27;8.27;;;18.70;99.90;;;;;;4992229;28;20033;-47
2023/07/20 10:53:05;;;;;;;9.55;8.68;;;19.00;99.90;;;;;;4992181;28;20037;-47
2023/07/20 10:56:07;;;;;;;9.25;8.45;;;19.40;99.90;;;;;;4991957;28;20026;-48
2023/07/20 10:58:58;;;;;;;9.30;8.43;;;19.50;99.90;;;;;;4992148;28;20027;-50
2023/07/20 11:01:45;;;;;;;8.57;7.78;;;19.70;99.90;;;;;;4992296;28;20031;-51
2023/07/20 11:04:44;;;;;;;6.57;5.90;;;19.70;99.90;;;;;;4992258;28;20057;-51
2023/07/20 11:07:41;;;;;;;6.00;5.50;;;19.70;99.90;;;;;;4990678;28;20026;-46
2023/07/20 11:10:27;;;;;;;5.05;3.92;;;19.30;99.90;;;;;;4992205;28;20018;-48
2023/07/20 11:13:24;;;;;;;5.65;4.43;;;19.00;99.90;;;;;;4991639;28;20033;-52
2023/07/20 11:16:10;;;;;;;4.18;3.78;;;18.90;99.90;;;;;;4991982;28;20081;-49
2023/07/20 11:18:57;;;;;;;3.80;3.50;;;19.00;99.90;;;;;;4992425;28;20419;-53
2023/07/20 11:21:45;;;;;;;4.28;3.20;;;19.10;99.90;;;;;;4992462;28;20400;-48
2023/07/20 11:24:31;;;;;;;3.20;2.83;;;19.00;99.90;;;;;;4992279;28;20027;-46
2023/07/20 11:27:22;;;;;;;4.47;2.97;;;18.90;99.90;;;;;;4991685;28;20031;-52
2023/07/20 11:30:16;;;;;;;5.72;3.38;;;19.10;99.90;;;;;;4991525;28;20057;-53
2023/07/20 11:33:02;;;;;;;3.30;3.00;;;19.30;99.90;;;;;;4991101;28;20053;-48
2023/07/20 11:35:50;;;;;;;3.13;2.65;;;19.40;99.90;;;;;;4992289;28;20026;-46
2023/07/20 11:38:38;;;;;;;3.00;2.70;;;19.50;99.90;;;;;;4991337;28;20026;-45
2023/07/20 11:41:25;;;;;;;5.15;3.33;;;19.60;99.90;;;;;;4992040;28;20267;-47
2023/07/20 11:44:14;;;;;;;3.13;2.83;;;19.40;99.90;;;;;;4990840;28;20434;-49
2023/07/20 11:47:13;;;;;;;3.92;2.85;;;19.50;99.90;;;;;;4991568;28;20054;-51
2023/07/20 11:50:03;;;;;;;3.60;3.20;;;19.30;99.90;;;;;;4992979;28;20031;-45
2023/07/20 11:52:49;;;;;;;4.78;3.50;;;19.30;99.90;;;;;;4990856;28;20037;-53
2023/07/20 11:55:36;;;;;;;5.40;3.67;;;19.50;99.90;;;;;;4991078;28;20402;-50
2023/07/20 11:58:22;;;;;;;4.32;3.92;;;19.70;99.90;;;;;;4991086;28;20557;-46
2023/07/20 12:01:08;;;;;;;4.55;4.15;;;19.60;99.90;;;;;;4990146;28;20027;-51
2023/07/20 12:04:03;;;;;;;4.63;3.70;;;19.60;99.90;;;;;;4992963;28;20038;-51
2023/07/20 12:06:49;;;;;;;5.22;4.38;;;19.60;99.90;;;;;;4995376;28;20023;-48
2023/07/20 12:09:35;;;;;;;5.63;5.05;;;19.80;99.90;;;;;;4995353;28;20030;-48
2023/07/20 12:12:21;;;;;;;5.78;5.28;;;19.80;99.90;;;;;;4994585;28;20050;-53
2023/07/20 12:15:17;;;;;;;7.03;6.43;;;20.00;99.90;;;;;;4995262;28;20041;-52
2023/07/20 12:18:03;;;;;;;7.57;6.90;;;19.70;99.90;;;;;;4995429;28;20617;-53
2023/07/20 12:20:59;;;;;;;7.65;7.05;;;19.60;99.90;;;;;;4994648;28;20030;-50
2023/07/20 12:23:45;;;;;;;6.50;6.00;;;19.70;99.90;;;;;;4994874;28;20411;-50
2023/07/20 12:26:32;;;;;;;6.00;4.97;;;19.80;99.90;;;;;;4994868;28;20507;-49
2023/07/20 12:29:18;;;;;;;5.90;5.40;;;20.00;99.70;;;;;;4994916;28;20042;-55
2023/07/20 12:32:05;;;;;;;6.65;6.07;;;20.10;99.90;;;;;;4994951;28;20027;-52
2023/07/20 12:34:51;;;;;;;6.70;6.10;;;20.10;99.90;;;;;;4995050;28;20054;-52
2023/07/20 12:37:37;;;;;;;5.65;5.15;;;20.30;99.90;;;;;;4994879;28;20026;-53
2023/07/20 12:40:23;;;;;;;6.15;5.65;;;20.30;99.30;;;;;;4994861;28;20058;-51
2023/07/20 12:43:09;;;;;;;7.43;6.82;;;20.40;99.20;;;;;;4994686;28;20105;-46
2023/07/20 12:45:56;;;;;;;7.13;6.50;;;20.40;99.10;;;;;;4993749;28;20042;-50
2023/07/20 12:48:43;;;;;;;7.50;6.90;;;20.40;99.10;;;;;;4992843;28;20470;-55
2023/07/20 12:51:29;;;;;;;7.40;6.70;;;20.30;98.20;;;;;;4994736;28;20557;-50
2023/07/20 12:54:14;;;;;;;8.13;6.95;;;20.10;98.50;;;;;;4994051;28;20549;-54
2023/07/20 12:57:00;;;;;;;8.98;7.10;;;19.90;98.80;;;;;;4993726;28;20527;-50
2023/07/20 12:59:46;;;;;;;7.40;6.70;;;19.80;99.50;;;;;;4993981;28;20495;-50
2023/07/20 13:02:33;;;;;;;7.28;6.68;;;19.70;99.60;;;;;;4993638;28;20045;-54
2023/07/20 13:05:19;;;;;;;7.03;6.47;;;20.00;99.60;;;;;;4994333;28;20137;-51
2023/07/20 13:08:05;;;;;;;7.65;5.72;;;20.10;99.50;;;;;;4994081;28;20035;-50
2023/07/20 13:10:51;;;;;;;6.55;6.05;;;20.40;98.00;;;;;;4994247;28;20101;-49
2023/07/20 13:13:38;;;;;;;6.55;5.95;;;20.50;97.90;;;;;;4994142;28;20062;-50
2023/07/20 13:16:23;;;;;;;6.55;5.90;;;20.50;97.50;;;;;;4993632;28;20022;-49
2023/07/20 13:19:10;;;;;;;7.05;6.32;;;20.80;97.60;;;;;;4993165;28;20073;-53
2023/07/20 13:21:56;;;;;;;6.50;6.00;;;21.10;96.50;;;;;;4993403;28;20550;-50
2023/07/20 13:24:48;;;;;;;8.73;6.10;;;21.20;96.20;;;;;;4993356;28;20043;-51
2023/07/20 13:27:36;;;;;;;6.22;5.63;;;21.70;95.90;;;;;;4993641;28;20453;-51
2023/07/20 13:30:22;;;;;;;6.07;5.57;;;22.00;95.10;;;;;;4993953;28;20038;-55
2023/07/20 13:33:08;;;;;;;4.65;4.25;;;21.90;94.60;;;;;;4993760;28;20045;-53
2023/07/20 13:35:54;;;;;;;4.80;4.40;;;21.80;92.30;;;;;;4993527;28;20105;-50
2023/07/20 13:38:40;;;;;;;4.88;4.47;;;21.70;93.40;;;;;;4992980;28;20081;-51
2023/07/20 13:41:26;;;;;;;5.30;4.80;;;21.70;92.20;;;;;;4993877;28;20027;-51
2023/07/20 13:44:12;;;;;;;5.07;4.28;;;21.90;91.80;;;;;;4993059;28;20495;-49
2023/07/20 13:46:58;;;;;;;3.95;3.58;;;21.90;91.70;;;;;;4992880;28;20038;-48
2023/07/20 13:49:44;;;;;;;3.55;3.25;;;21.80;89.50;;;;;;4993848;28;20023;-47
2023/07/20 13:52:30;;;;;;;4.13;3.72;;;21.80;89.70;;;;;;4993032;28;20026;-50
2023/07/20 13:55:16;;;;;;;4.55;3.53;;;22.10;90.30;;;;;;4993457;28;20026;-52
2023/07/20 13:58:02;;;;;;;4.38;3.55;;;22.30;87.90;;;;;;4993287;28;20029;-55
2023/07/20 14:00:48;;;;;;;3.40;3.10;;;22.70;87.50;;;;;;4994105;28;20034;-55
2023/07/20 14:03:34;;;;;;;3.80;2.80;;;23.30;85.50;;;;;;4993575;28;20030;-46
2023/07/20 14:06:20;;;;;;;4.10;2.88;;;23.40;81.20;;;;;;4993218;28;20116;-51
2023/07/20 14:09:06;;;;;;;2.90;2.60;;;23.20;80.80;;;;;;4993060;28;20057;-54
2023/07/20 14:11:52;;;;;;;2.83;2.60;;;23.10;80.40;;;;;;4992828;28;20084;-49
2023/07/20 14:14:38;;;;;;;3.17;2.80;;;23.00;80.50;;;;;;4993737;28;20027;-47
2023/07/20 14:17:24;;;;;;;2.53;2.33;;;23.30;81.10;;;;;;4993483;28;20034;-46
2023/07/20 14:20:10;;;;;;;2.95;2.22;;;23.30;79.40;;;;;;4993972;28;20069;-44
2023/07/20 14:22:56;;;;;;;2.80;2.42;;;23.30;77.80;;;;;;4993586;28;20038;-49
2023/07/20 14:25:42;;;;;;;4.25;2.30;;;23.40;78.10;;;;;;4993035;28;20073;-47